Time;durP1;ratioP1;P1;durP2;ratioP2;P2;SDS_P1;SDS_P2;PMS_P1;PMS_P2;Temp;Humidity;BMP_temperature;BMP_pressure;BME280_temperature;BME280_humidity;BME280_pressure;Samples;Min_cycle;Max_cycle;Signal;HPM_P1;HPM_P2
2022/04/13 00:01:19;;;;;;;13.82;8.45;;;13.80;91.70;;;;;;5056603;28;20044;-51
2022/04/13 00:03:46;;;;;;;15.60;8.95;;;13.80;91.90;;;;;;5069916;28;20043;-50
2022/04/13 00:06:12;;;;;;;15.48;9.10;;;13.70;91.60;;;;;;5072379;28;20044;-51
2022/04/13 00:08:40;;;;;;;14.43;9.32;;;13.70;91.70;;;;;;5065686;28;20044;-51
2022/04/13 00:11:05;;;;;;;14.90;9.25;;;13.70;91.40;;;;;;5022446;28;20033;-51
2022/04/13 00:13:31;;;;;;;14.02;8.90;;;13.60;91.30;;;;;;5072647;28;20043;-52
2022/04/13 00:15:56;;;;;;;14.63;8.63;;;13.60;91.20;;;;;;5071472;28;20111;-51
2022/04/13 00:18:22;;;;;;;15.27;8.75;;;13.60;91.20;;;;;;5065703;28;20170;-51
2022/04/13 00:20:48;;;;;;;13.88;8.25;;;13.60;91.10;;;;;;5052597;28;20580;-51
2022/04/13 00:23:13;;;;;;;15.10;8.68;;;13.70;91.10;;;;;;5056679;28;20036;-51
2022/04/13 00:25:41;;;;;;;15.80;8.43;;;13.70;91.10;;;;;;5066926;28;20135;-52
2022/04/13 00:28:09;;;;;;;17.23;9.05;;;13.70;91.00;;;;;;5063906;28;20090;-49
2022/04/13 00:30:36;;;;;;;14.40;9.52;;;13.70;91.00;;;;;;5072378;28;20036;-52
2022/04/13 00:33:02;;;;;;;12.68;8.52;;;13.70;91.00;;;;;;5070293;28;20036;-52
2022/04/13 00:35:27;;;;;;;13.15;9.23;;;13.70;91.00;;;;;;5072208;28;20039;-52
2022/04/13 00:37:53;;;;;;;11.40;8.02;;;13.70;90.90;;;;;;5069980;28;20131;-51
2022/04/13 00:40:18;;;;;;;15.40;8.32;;;13.70;90.90;;;;;;5055712;28;20099;-50
2022/04/13 00:42:44;;;;;;;13.43;8.30;;;13.80;90.80;;;;;;5066504;28;20040;-53
2022/04/13 00:45:09;;;;;;;13.80;8.20;;;13.80;90.70;;;;;;5069839;28;20048;-51
2022/04/13 00:47:40;;;;;;;24.90;8.40;;;13.90;90.50;;;;;;5069601;28;20045;-51
2022/04/13 00:50:07;;;;;;;10.57;7.80;;;13.90;90.30;;;;;;5052735;28;20044;-50
2022/04/13 00:52:35;;;;;;;15.63;8.05;;;13.90;90.20;;;;;;5069105;28;20047;-51
2022/04/13 00:55:02;;;;;;;12.90;7.97;;;13.90;90.00;;;;;;5068452;28;20490;-52
2022/04/13 00:57:32;;;;;;;12.55;8.25;;;14.00;89.90;;;;;;5048527;28;20071;-53
2022/04/13 00:59:58;;;;;;;12.30;7.65;;;14.00;89.60;;;;;;5067185;28;20480;-48
2022/04/13 01:02:24;;;;;;;14.05;8.05;;;14.00;89.30;;;;;;5062690;28;20059;-51
2022/04/13 01:04:51;;;;;;;15.82;8.30;;;14.10;89.20;;;;;;5046534;28;20040;-50
2022/04/13 01:07:17;;;;;;;12.75;8.57;;;14.00;89.00;;;;;;5055310;28;20048;-52
2022/04/13 01:09:42;;;;;;;12.00;7.57;;;14.00;89.10;;;;;;5042220;28;20045;-51
2022/04/13 01:12:08;;;;;;;14.63;8.32;;;14.00;89.40;;;;;;5052124;28;20042;-47
2022/04/13 01:14:34;;;;;;;13.27;7.85;;;14.00;89.20;;;;;;5063163;28;20395;-49
2022/04/13 01:17:00;;;;;;;15.70;8.65;;;14.00;89.20;;;;;;5052644;28;20055;-51
2022/04/13 01:19:27;;;;;;;14.63;7.95;;;14.00;89.50;;;;;;5051988;28;20048;-52
2022/04/13 01:21:52;;;;;;;14.85;8.40;;;14.00;89.30;;;;;;5065302;28;20037;-54
2022/04/13 01:24:19;;;;;;;14.45;8.00;;;13.90;89.20;;;;;;5068369;28;20083;-51
2022/04/13 01:26:45;;;;;;;14.27;8.32;;;13.90;89.30;;;;;;5036107;28;20032;-51
2022/04/13 01:29:11;;;;;;;13.75;8.30;;;13.90;89.40;;;;;;5071559;28;20407;-51
2022/04/13 01:31:37;;;;;;;12.95;8.55;;;13.80;89.80;;;;;;5069673;28;20036;-51
2022/04/13 01:34:04;;;;;;;11.35;8.10;;;13.80;89.80;;;;;;5070512;28;20035;-52
2022/04/13 01:36:31;;;;;;;13.25;8.43;;;13.70;89.80;;;;;;5066653;28;20043;-51
2022/04/13 01:38:57;;;;;;;12.18;7.85;;;13.70;90.00;;;;;;5034772;28;20139;-52
2022/04/13 01:41:23;;;;;;;13.10;8.73;;;13.70;90.20;;;;;;5063415;28;20127;-51
2022/04/13 01:43:48;;;;;;;15.82;8.13;;;13.70;90.20;;;;;;5068078;28;20048;-49
2022/04/13 01:46:14;;;;;;;16.08;8.25;;;13.70;90.30;;;;;;5069162;28;20499;-51
2022/04/13 01:48:39;;;;;;;14.57;8.77;;;13.60;90.50;;;;;;5069092;28;20127;-52
2022/04/13 01:51:05;;;;;;;13.55;8.48;;;13.60;90.60;;;;;;5062205;28;20128;-52
2022/04/13 01:53:30;;;;;;;12.13;8.60;;;13.50;90.70;;;;;;5061912;28;20041;-50
2022/04/13 01:55:59;;;;;;;14.00;8.85;;;13.50;91.10;;;;;;5068876;28;20033;-52
2022/04/13 01:58:25;;;;;;;12.88;8.98;;;13.40;91.20;;;;;;5071270;28;20041;-50
2022/04/13 02:00:54;;;;;;;14.98;9.02;;;13.30;91.40;;;;;;5069983;28;20186;-51
2022/04/13 02:03:25;;;;;;;13.40;9.05;;;13.20;91.60;;;;;;5066036;28;20466;-52
2022/04/13 02:05:52;;;;;;;13.30;8.60;;;13.10;91.70;;;;;;5041218;28;20095;-53
2022/04/13 02:08:19;;;;;;;15.57;9.55;;;13.00;91.80;;;;;;5033308;28;20396;-50
2022/04/13 02:10:44;;;;;;;13.40;9.88;;;13.00;91.80;;;;;;5057841;28;20041;-51
2022/04/13 02:13:10;;;;;;;13.20;9.65;;;12.90;92.00;;;;;;5061874;28;20075;-50
2022/04/13 02:15:36;;;;;;;15.68;9.65;;;12.90;92.20;;;;;;5062656;28;20067;-51
2022/04/13 02:18:02;;;;;;;17.48;9.18;;;12.90;92.20;;;;;;5068770;28;20036;-51
2022/04/13 02:20:27;;;;;;;13.65;8.70;;;12.90;92.20;;;;;;5068053;28;20644;-49
2022/04/13 02:22:53;;;;;;;15.77;9.73;;;12.90;92.20;;;;;;5070106;28;20124;-49
2022/04/13 02:25:18;;;;;;;15.18;9.40;;;12.90;92.10;;;;;;5071140;28;20079;-47
2022/04/13 02:27:44;;;;;;;15.90;9.27;;;12.90;92.20;;;;;;5069970;28;20359;-47
2022/04/13 02:30:10;;;;;;;14.13;9.43;;;12.90;92.30;;;;;;5071020;28;20045;-47
2022/04/13 02:32:40;;;;;;;18.02;9.05;;;12.90;92.30;;;;;;5068312;28;20370;-49
2022/04/13 02:35:06;;;;;;;14.55;9.15;;;12.90;92.40;;;;;;5064241;28;20111;-50
2022/04/13 02:37:31;;;;;;;15.10;9.32;;;12.90;92.40;;;;;;5070138;28;20119;-53
2022/04/13 02:39:57;;;;;;;17.45;10.02;;;12.90;92.40;;;;;;5073704;28;20087;-51
2022/04/13 02:42:22;;;;;;;14.90;9.52;;;12.80;92.40;;;;;;5071323;28;20040;-53
2022/04/13 02:44:49;;;;;;;18.83;10.18;;;12.90;92.50;;;;;;5072286;28;20613;-53
2022/04/13 02:47:14;;;;;;;12.65;9.05;;;12.80;92.50;;;;;;5070079;28;20115;-53
2022/04/13 02:49:41;;;;;;;11.68;8.15;;;12.80;92.50;;;;;;5073328;28;20124;-52
2022/04/13 02:52:07;;;;;;;14.73;9.30;;;12.60;92.60;;;;;;5066889;28;20076;-53
2022/04/13 02:54:32;;;;;;;17.27;9.52;;;12.50;93.00;;;;;;5070009;28;20037;-53
2022/04/13 02:56:58;;;;;;;13.80;10.23;;;12.30;93.00;;;;;;5072339;28;20047;-53
2022/04/13 02:59:23;;;;;;;15.70;10.52;;;12.20;93.10;;;;;;5072433;28;20485;-49
2022/04/13 03:01:49;;;;;;;14.32;10.65;;;12.20;93.30;;;;;;5047046;28;20036;-50
2022/04/13 03:04:16;;;;;;;17.92;10.70;;;12.20;93.30;;;;;;5025509;28;20036;-51
2022/04/13 03:06:42;;;;;;;18.77;10.98;;;12.20;93.40;;;;;;5063621;28;20416;-53
2022/04/13 03:09:07;;;;;;;19.70;11.50;;;12.20;93.50;;;;;;5062438;28;20032;-53
2022/04/13 03:11:33;;;;;;;18.58;11.60;;;12.20;93.60;;;;;;5069782;28;20032;-52
2022/04/13 03:13:58;;;;;;;16.38;11.35;;;12.20;93.90;;;;;;5070124;28;20072;-48
2022/04/13 03:16:24;;;;;;;17.08;11.07;;;12.20;93.70;;;;;;5072154;28;20036;-51
2022/04/13 03:18:49;;;;;;;17.02;11.82;;;12.20;93.80;;;;;;5061056;28;20447;-49
2022/04/13 03:21:15;;;;;;;22.52;12.05;;;12.20;93.90;;;;;;5061005;28;20037;-51
2022/04/13 03:23:41;;;;;;;22.58;12.63;;;12.20;94.00;;;;;;5073298;28;20037;-51
2022/04/13 03:26:07;;;;;;;18.73;12.75;;;12.20;94.00;;;;;;5038880;28;20059;-53
2022/04/13 03:28:33;;;;;;;20.20;13.38;;;12.20;94.10;;;;;;5070264;28;20036;-53
2022/04/13 03:30:59;;;;;;;19.75;13.43;;;12.20;94.00;;;;;;5072451;28;20029;-53
2022/04/13 03:33:24;;;;;;;19.20;12.80;;;12.20;94.20;;;;;;5072377;28;20117;-53
2022/04/13 03:35:50;;;;;;;22.00;13.82;;;12.20;94.20;;;;;;5073708;28;20388;-53
2022/04/13 03:38:15;;;;;;;26.98;14.57;;;12.20;94.30;;;;;;5072398;28;20032;-53
2022/04/13 03:40:41;;;;;;;23.13;14.20;;;12.20;94.40;;;;;;5073365;28;20044;-51
2022/04/13 03:43:06;;;;;;;27.17;14.68;;;12.20;94.50;;;;;;5071276;28;20056;-53
2022/04/13 03:45:32;;;;;;;21.33;13.65;;;12.20;94.60;;;;;;5064109;28;20091;-53
2022/04/13 03:47:58;;;;;;;26.15;14.65;;;12.10;94.60;;;;;;5071984;28;20079;-53
2022/04/13 03:50:23;;;;;;;28.77;15.10;;;12.10;94.70;;;;;;5073287;28;20439;-53
2022/04/13 03:52:49;;;;;;;27.67;15.43;;;12.10;94.70;;;;;;5070719;28;20066;-53
2022/04/13 03:55:14;;;;;;;25.73;15.68;;;12.10;94.70;;;;;;5065302;28;20032;-53
2022/04/13 03:57:40;;;;;;;26.30;15.60;;;12.20;94.80;;;;;;5051119;28;20090;-53
2022/04/13 04:00:08;;;;;;;21.80;15.52;;;12.10;94.80;;;;;;5066743;28;20400;-52
2022/04/13 04:02:38;;;;;;;23.10;16.13;;;12.10;94.80;;;;;;5053137;28;20041;-53
2022/04/13 04:05:04;;;;;;;23.70;15.20;;;12.10;94.90;;;;;;5068011;28;20033;-54
2022/04/13 04:07:29;;;;;;;29.10;16.10;;;12.10;95.00;;;;;;5072057;28;20033;-54
2022/04/13 04:09:55;;;;;;;25.30;13.73;;;12.00;95.20;;;;;;5068731;28;20098;-50
2022/04/13 04:12:20;;;;;;;24.90;13.52;;;12.00;95.40;;;;;;5061480;28;20488;-54
2022/04/13 04:14:46;;;;;;;23.92;13.93;;;11.90;95.60;;;;;;5060675;28;20112;-54
2022/04/13 04:17:12;;;;;;;21.10;13.90;;;11.80;95.80;;;;;;5066694;28;20063;-54
2022/04/13 04:19:37;;;;;;;27.17;14.68;;;11.70;96.00;;;;;;5064183;28;20385;-52
2022/04/13 04:22:03;;;;;;;24.10;15.85;;;11.70;96.10;;;;;;5026521;28;20041;-50
2022/04/13 04:24:29;;;;;;;23.58;14.65;;;11.70;96.40;;;;;;5065253;28;20082;-50
2022/04/13 04:26:55;;;;;;;28.25;16.58;;;11.70;96.50;;;;;;5066614;28;20795;-53
2022/04/13 04:29:20;;;;;;;29.63;16.58;;;11.70;96.50;;;;;;5068138;28;20139;-51
2022/04/13 04:31:53;;;;;;;27.50;16.17;;;11.70;96.60;;;;;;5052213;28;20174;-50
2022/04/13 04:34:21;;;;;;;23.30;15.45;;;11.70;96.80;;;;;;5060238;28;20044;-52
2022/04/13 04:36:47;;;;;;;22.85;15.25;;;11.70;96.60;;;;;;5059022;28;20082;-51
2022/04/13 04:39:13;;;;;;;22.05;15.88;;;11.70;96.70;;;;;;5065159;28;20435;-52
2022/04/13 04:41:40;;;;;;;26.92;15.55;;;11.70;96.70;;;;;;5064971;28;20412;-53
2022/04/13 04:44:06;;;;;;;27.27;16.13;;;11.70;96.80;;;;;;5061781;28;20037;-53
2022/04/13 04:46:32;;;;;;;27.10;17.75;;;11.70;97.00;;;;;;5069204;28;20087;-50
2022/04/13 04:48:57;;;;;;;29.02;15.88;;;11.70;97.00;;;;;;5071569;28;20072;-53
2022/04/13 04:51:23;;;;;;;29.98;15.98;;;11.60;97.10;;;;;;5072036;28;20139;-54
2022/04/13 04:53:48;;;;;;;32.33;17.13;;;11.70;97.20;;;;;;5068691;28;20037;-50
2022/04/13 04:56:15;;;;;;;28.90;17.50;;;11.70;97.50;;;;;;5070231;28;20036;-50
2022/04/13 04:58:40;;;;;;;27.25;17.83;;;11.70;97.50;;;;;;5042772;28;20077;-54
2022/04/13 05:01:06;;;;;;;30.13;17.80;;;11.70;97.50;;;;;;5051946;28;20072;-50
2022/04/13 05:03:33;;;;;;;29.02;16.17;;;11.70;97.60;;;;;;5029440;28;20043;-51
2022/04/13 05:05:58;;;;;;;30.23;16.52;;;11.70;97.80;;;;;;5071729;28;20408;-51
2022/04/13 05:08:24;;;;;;;25.58;15.63;;;11.70;97.90;;;;;;5070586;28;20040;-50
2022/04/13 05:10:53;;;;;;;26.92;15.95;;;11.70;98.00;;;;;;5065717;28;20072;-50
2022/04/13 05:13:18;;;;;;;24.08;14.73;;;11.80;98.00;;;;;;5049824;28;20050;-49
2022/04/13 05:15:45;;;;;;;25.85;14.80;;;11.80;98.00;;;;;;5070880;28;20445;-49
2022/04/13 05:18:11;;;;;;;20.70;14.90;;;11.80;98.10;;;;;;5065062;28;20511;-54
2022/04/13 05:20:37;;;;;;;23.40;14.68;;;11.80;98.20;;;;;;5057988;28;20040;-53
2022/04/13 05:23:02;;;;;;;22.40;15.45;;;11.80;98.20;;;;;;5063186;28;20036;-53
2022/04/13 05:25:28;;;;;;;24.60;14.82;;;11.80;98.20;;;;;;5070888;28;20043;-53
2022/04/13 05:27:53;;;;;;;24.15;15.77;;;11.70;98.20;;;;;;5073638;22;21831;-57
2022/04/13 05:30:19;;;;;;;24.27;15.00;;;11.80;98.40;;;;;;5055956;28;20045;-55
2022/04/13 05:32:56;;;;;;;32.25;15.10;;;11.80;98.50;;;;;;5060144;28;20487;-55
2022/04/13 05:35:23;;;;;;;20.25;13.98;;;11.80;98.70;;;;;;5054635;28;20128;-55
2022/04/13 05:37:49;;;;;;;24.80;14.52;;;11.70;98.50;;;;;;5063551;28;20047;-56
2022/04/13 05:40:15;;;;;;;22.58;13.88;;;11.60;98.50;;;;;;5064357;28;20041;-55
2022/04/13 05:42:40;;;;;;;27.13;14.25;;;11.60;98.60;;;;;;5055121;28;20484;-55
2022/04/13 05:45:07;;;;;;;23.52;14.13;;;11.60;98.90;;;;;;5057572;28;20036;-55
2022/04/13 05:47:33;;;;;;;23.38;14.88;;;11.60;98.90;;;;;;5063199;28;20036;-55
2022/04/13 05:49:58;;;;;;;24.17;14.25;;;11.60;99.10;;;;;;5071417;28;20125;-55
2022/04/13 05:52:24;;;;;;;22.02;14.05;;;11.60;99.20;;;;;;5071371;28;20119;-55
2022/04/13 05:54:49;;;;;;;21.13;14.00;;;11.60;99.10;;;;;;5069904;28;20090;-55
2022/04/13 05:57:15;;;;;;;20.73;13.65;;;11.70;99.20;;;;;;5071220;28;20067;-55
2022/04/13 05:59:40;;;;;;;20.20;13.90;;;11.70;99.30;;;;;;5071404;28;20048;-55
2022/04/13 06:02:06;;;;;;;26.60;14.98;;;11.70;99.30;;;;;;5071218;28;20415;-55
2022/04/13 06:04:31;;;;;;;21.25;14.80;;;11.80;99.40;;;;;;5062963;28;20036;-55
2022/04/13 06:06:59;;;;;;;25.40;15.57;;;11.80;99.50;;;;;;5061244;28;20037;-55
2022/04/13 06:09:25;;;;;;;22.42;14.50;;;11.90;99.50;;;;;;5060410;28;20051;-55
2022/04/13 06:11:50;;;;;;;19.88;14.05;;;12.00;99.40;;;;;;5059051;28;20076;-55
2022/04/13 06:14:16;;;;;;;21.38;14.32;;;12.00;99.60;;;;;;5043501;28;20044;-55
2022/04/13 06:16:42;;;;;;;22.70;14.52;;;12.10;99.40;;;;;;5060624;28;20037;-55
2022/04/13 06:19:08;;;;;;;21.48;14.02;;;12.30;99.20;;;;;;5065626;28;20404;-55
2022/04/13 06:21:34;;;;;;;20.02;13.85;;;12.30;99.20;;;;;;5063614;28;20511;-55
2022/04/13 06:24:00;;;;;;;22.77;13.93;;;12.40;99.20;;;;;;5060324;28;20192;-55
2022/04/13 06:26:25;;;;;;;22.60;13.73;;;12.50;99.40;;;;;;5061246;28;20055;-55
2022/04/13 06:28:52;;;;;;;23.38;13.30;;;12.50;99.70;;;;;;5056564;28;20044;-55
2022/04/13 06:31:18;;;;;;;21.75;13.00;;;12.60;99.70;;;;;;5066799;28;20037;-54
2022/04/13 06:33:44;;;;;;;23.20;13.13;;;12.70;99.90;;;;;;5060046;28;20136;-52
2022/04/13 06:36:09;;;;;;;22.20;12.98;;;12.70;99.90;;;;;;5056465;28;20500;-52
2022/04/13 06:38:35;;;;;;;20.67;12.73;;;12.80;99.90;;;;;;5064018;28;20514;-52
2022/04/13 06:41:01;;;;;;;17.45;12.45;;;12.90;99.90;;;;;;5064080;28;20037;-55
2022/04/13 06:43:26;;;;;;;41.10;13.35;;;13.00;99.90;;;;;;5061512;28;20036;-54
2022/04/13 06:45:53;;;;;;;22.42;12.68;;;13.00;99.90;;;;;;5065703;28;20516;-54
2022/04/13 06:48:19;;;;;;;22.42;12.90;;;13.00;99.90;;;;;;5064226;28;20047;-55
2022/04/13 06:50:45;;;;;;;17.30;12.10;;;13.00;99.90;;;;;;5066637;28;20033;-54
2022/04/13 06:53:10;;;;;;;18.25;12.05;;;13.10;99.90;;;;;;5067328;28;20494;-55
2022/04/13 06:55:39;;;;;;;20.17;11.68;;;13.10;99.90;;;;;;5061748;28;20455;-55
2022/04/13 06:58:05;;;;;;;19.30;12.23;;;13.10;99.90;;;;;;5056293;28;20041;-55
2022/04/13 07:00:30;;;;;;;18.15;11.75;;;13.30;99.90;;;;;;5053996;28;20445;-54
2022/04/13 07:02:57;;;;;;;16.73;11.20;;;13.30;99.90;;;;;;5062422;28;20064;-54
2022/04/13 07:05:24;;;;;;;20.80;12.35;;;13.40;99.90;;;;;;5059709;28;20049;-55
2022/04/13 07:07:50;;;;;;;19.92;11.45;;;13.50;99.90;;;;;;5060940;28;20552;-55
2022/04/13 07:10:15;;;;;;;24.42;11.90;;;13.50;99.90;;;;;;5058313;28;20127;-55
2022/04/13 07:12:41;;;;;;;19.90;11.98;;;13.70;99.90;;;;;;5056458;28;20037;-55
2022/04/13 07:15:07;;;;;;;20.67;11.38;;;13.70;99.90;;;;;;5065195;28;20115;-55
2022/04/13 07:17:32;;;;;;;19.45;11.18;;;13.70;99.90;;;;;;5056820;28;20033;-55
2022/04/13 07:19:58;;;;;;;20.05;10.95;;;13.80;99.90;;;;;;5061387;28;20039;-56
2022/04/13 07:22:24;;;;;;;20.60;11.05;;;13.80;99.90;;;;;;5068067;28;20119;-56
2022/04/13 07:24:50;;;;;;;19.75;11.07;;;13.80;99.90;;;;;;5056781;28;20568;-56
2022/04/13 07:27:16;;;;;;;17.55;10.82;;;13.90;99.90;;;;;;5058813;28;20045;-56
2022/04/13 07:29:42;;;;;;;18.90;10.52;;;13.90;99.90;;;;;;5034121;28;20414;-56
2022/04/13 07:32:07;;;;;;;18.70;10.75;;;14.00;99.90;;;;;;5056585;28;20106;-55
2022/04/13 07:34:34;;;;;;;19.55;10.90;;;14.00;99.90;;;;;;5060565;28;20554;-56
2022/04/13 07:36:59;;;;;;;17.85;10.00;;;14.10;99.90;;;;;;5064236;28;20041;-55
2022/04/13 07:39:25;;;;;;;16.75;9.93;;;14.10;99.90;;;;;;5050580;28;20510;-56
2022/04/13 07:41:50;;;;;;;16.45;10.15;;;14.10;99.90;;;;;;5049249;28;20033;-56
2022/04/13 07:44:18;;;;;;;25.95;11.25;;;14.10;99.90;;;;;;5058214;28;20051;-56
2022/04/13 07:46:43;;;;;;;22.98;10.38;;;14.10;99.90;;;;;;5057840;28;20045;-55
2022/04/13 07:49:09;;;;;;;20.05;10.55;;;14.10;99.90;;;;;;5038171;28;20056;-55
2022/04/13 07:51:35;;;;;;;17.77;10.27;;;14.10;99.90;;;;;;5066707;28;20055;-55
2022/04/13 07:54:03;;;;;;;18.90;11.25;;;14.10;99.90;;;;;;5057923;28;20090;-54
2022/04/13 07:56:29;;;;;;;17.83;10.35;;;14.10;99.90;;;;;;5055213;28;20128;-55
2022/04/13 07:58:55;;;;;;;20.33;11.02;;;14.20;99.90;;;;;;5067156;28;20036;-55
2022/04/13 08:01:21;;;;;;;19.40;10.93;;;14.20;99.90;;;;;;5067237;28;20054;-54
2022/04/13 08:03:46;;;;;;;20.45;10.50;;;14.30;99.90;;;;;;5035840;28;20033;-55
2022/04/13 08:06:12;;;;;;;15.05;10.57;;;14.30;99.90;;;;;;5057450;28;20048;-55
2022/04/13 08:08:38;;;;;;;18.02;10.32;;;14.40;99.90;;;;;;5065831;28;20502;-55
2022/04/13 08:11:05;;;;;;;21.65;10.75;;;14.30;99.90;;;;;;5030386;28;20037;-55
2022/04/13 08:13:31;;;;;;;19.65;10.80;;;14.30;99.90;;;;;;5053816;28;20051;-55
2022/04/13 08:15:57;;;;;;;17.63;10.43;;;14.30;99.90;;;;;;5052119;28;20090;-54
2022/04/13 08:18:22;;;;;;;36.13;11.35;;;14.30;99.90;;;;;;5066391;28;20036;-55
2022/04/13 08:20:49;;;;;;;17.58;10.32;;;14.30;99.90;;;;;;5059086;28;20055;-55
2022/04/13 08:23:15;;;;;;;19.45;10.70;;;14.30;99.90;;;;;;5061474;28;20040;-55
2022/04/13 08:25:41;;;;;;;20.65;10.40;;;14.50;99.90;;;;;;5064707;28;20040;-55
2022/04/13 08:28:06;;;;;;;18.17;10.25;;;14.60;99.90;;;;;;5061281;28;20040;-54
2022/04/13 08:30:32;;;;;;;14.95;10.40;;;14.70;99.90;;;;;;5058700;28;20032;-55
2022/04/13 08:32:57;;;;;;;18.05;10.10;;;14.70;99.90;;;;;;5050176;28;20040;-55
2022/04/13 08:35:23;;;;;;;17.15;10.13;;;14.80;99.90;;;;;;5048843;28;20048;-54
2022/04/13 08:37:49;;;;;;;16.75;9.18;;;15.00;99.90;;;;;;5046696;28;20033;-55
2022/04/13 08:40:16;;;;;;;17.35;9.48;;;15.10;99.90;;;;;;5050223;28;20120;-55
2022/04/13 08:42:50;;;;;;;15.52;9.57;;;15.20;99.90;;;;;;5055872;28;20101;-55
2022/04/13 08:45:25;;;;;;;15.32;8.95;;;15.30;99.90;;;;;;5051598;28;20039;-54
2022/04/13 08:47:56;;;;;;;17.17;9.23;;;15.40;99.90;;;;;;5039163;28;20099;-55
2022/04/13 08:50:32;;;;;;;16.40;9.05;;;15.40;99.90;;;;;;5069997;28;20044;-55
2022/04/13 08:53:00;;;;;;;20.10;9.05;;;15.50;99.80;;;;;;5069639;28;20392;-55
2022/04/13 08:55:29;;;;;;;20.70;9.38;;;15.50;99.80;;;;;;5061924;28;20655;-55
2022/04/13 08:58:19;;;;;;;13.25;8.73;;;15.60;99.70;;;;;;5058566;28;20035;-55
2022/04/13 09:00:49;;;;;;;15.00;8.93;;;15.70;99.60;;;;;;5052094;28;20056;-55
2022/04/13 09:03:41;;;;;;;17.42;8.82;;;15.80;99.40;;;;;;5057740;28;20044;-55
2022/04/13 09:06:08;;;;;;;13.70;8.20;;;15.90;99.00;;;;;;5060996;28;20041;-55
2022/04/13 09:08:46;;;;;;;13.13;8.02;;;16.00;98.70;;;;;;5064442;28;20062;-55
2022/04/13 09:11:13;;;;;;;14.98;7.65;;;16.00;98.70;;;;;;5061419;28;20116;-56
2022/04/13 09:13:39;;;;;;;16.00;8.52;;;16.10;98.50;;;;;;5069763;28;20042;-55
2022/04/13 09:16:05;;;;;;;15.55;8.13;;;16.20;98.50;;;;;;5051479;28;20044;-55
2022/04/13 09:18:31;;;;;;;14.40;8.43;;;16.30;98.30;;;;;;5066780;28;20033;-55
2022/04/13 09:20:58;;;;;;;14.65;7.28;;;16.30;98.20;;;;;;5070132;28;20033;-55
2022/04/13 09:23:25;;;;;;;12.18;7.70;;;16.30;98.00;;;;;;5061522;28;20627;-56
2022/04/13 09:25:51;;;;;;;11.02;6.55;;;16.20;97.90;;;;;;5063102;28;20032;-55
2022/04/13 09:28:17;;;;;;;12.82;7.10;;;16.20;97.90;;;;;;5063724;28;20108;-56
2022/04/13 09:30:43;;;;;;;13.10;7.07;;;16.30;98.10;;;;;;5062801;28;20160;-56
2022/04/13 09:33:09;;;;;;;10.68;6.57;;;16.30;97.90;;;;;;5046803;28;20032;-56
2022/04/13 09:35:35;;;;;;;13.73;7.05;;;16.30;97.90;;;;;;5057612;28;20048;-55
2022/04/13 09:38:05;;;;;;;11.70;7.68;;;16.40;97.70;;;;;;5067021;28;20036;-55
2022/04/13 09:40:39;;;;;;;12.65;6.63;;;16.40;97.60;;;;;;5069833;28;20037;-55
2022/04/13 09:43:17;;;;;;;13.85;6.55;;;16.50;97.80;;;;;;5062523;28;20052;-56
2022/04/13 09:45:49;;;;;;;11.75;6.63;;;16.60;97.70;;;;;;5066448;28;21312;-55
2022/04/13 09:48:16;;;;;;;11.40;7.00;;;16.70;97.40;;;;;;5057051;28;20128;-56
2022/04/13 09:50:44;;;;;;;12.23;7.22;;;16.80;97.30;;;;;;5059939;28;20041;-56
2022/04/13 09:53:11;;;;;;;16.17;7.63;;;16.90;97.10;;;;;;5056409;28;20440;-56
2022/04/13 09:55:41;;;;;;;12.15;6.40;;;17.00;97.00;;;;;;5053108;28;20037;-56
2022/04/13 09:58:07;;;;;;;10.80;5.60;;;17.00;96.60;;;;;;5055575;28;20066;-56
2022/04/13 10:00:34;;;;;;;9.45;5.45;;;16.90;95.90;;;;;;5064797;28;20559;-55
2022/04/13 10:03:26;;;;;;;6.63;3.55;;;16.90;95.60;;;;;;5068927;28;20033;-55
2022/04/13 10:05:57;;;;;;;9.73;4.80;;;16.80;95.00;;;;;;5060004;28;20147;-56
2022/04/13 10:08:24;;;;;;;8.30;4.20;;;16.90;95.20;;;;;;5070577;28;20036;-55
2022/04/13 10:10:56;;;;;;;8.73;3.97;;;17.00;95.10;;;;;;5057614;28;20051;-55
2022/04/13 10:13:41;;;;;;;7.88;4.55;;;17.00;92.60;;;;;;5062296;28;20040;-55
2022/04/13 10:16:11;;;;;;;8.85;4.88;;;17.20;94.20;;;;;;5035801;28;20041;-56
2022/04/13 10:18:57;;;;;;;8.45;4.28;;;17.40;94.30;;;;;;5060456;28;20045;-56
2022/04/13 10:21:37;;;;;;;7.63;3.90;;;17.50;94.10;;;;;;5065513;28;20036;-55
2022/04/13 10:24:03;;;;;;;8.02;4.63;;;17.50;93.50;;;;;;5064903;28;20041;-55
2022/04/13 10:26:29;;;;;;;9.45;4.85;;;17.60;93.40;;;;;;5059645;28;20068;-55
2022/04/13 10:28:54;;;;;;;8.80;5.25;;;17.70;93.60;;;;;;5057751;28;20060;-55
2022/04/13 10:31:20;;;;;;;10.75;6.32;;;17.70;93.30;;;;;;5060523;28;20046;-55
2022/04/13 10:33:47;;;;;;;9.90;5.85;;;17.80;93.40;;;;;;5066576;28;20033;-54
2022/04/13 10:36:14;;;;;;;8.45;4.60;;;17.90;93.50;;;;;;5062889;28;20042;-55
2022/04/13 10:38:39;;;;;;;11.52;6.43;;;17.90;92.80;;;;;;5063266;28;20036;-55
2022/04/13 10:41:06;;;;;;;10.68;5.60;;;18.00;92.90;;;;;;5057180;28;20047;-55
2022/04/13 10:43:33;;;;;;;13.73;6.07;;;18.10;93.00;;;;;;5061209;28;20120;-54
2022/04/13 10:45:58;;;;;;;10.25;6.30;;;18.20;93.10;;;;;;5061301;28;20107;-55
2022/04/13 10:48:31;;;;;;;11.95;7.28;;;18.20;92.60;;;;;;5034682;28;20572;-55
2022/04/13 10:51:06;;;;;;;11.13;7.70;;;18.10;92.60;;;;;;5057788;28;20041;-55
2022/04/13 10:53:52;;;;;;;15.27;7.93;;;18.00;92.80;;;;;;5058657;28;20037;-55
2022/04/13 10:56:20;;;;;;;10.82;7.85;;;17.90;93.00;;;;;;5035592;28;20099;-55
2022/04/13 10:59:18;;;;;;;13.88;7.95;;;17.80;93.20;;;;;;5066437;28;20032;-55
2022/04/13 11:01:56;;;;;;;13.73;8.77;;;17.80;93.40;;;;;;5073014;28;20051;-55
2022/04/13 11:04:22;;;;;;;13.15;8.50;;;17.70;93.70;;;;;;5059627;28;20056;-55
2022/04/13 11:06:48;;;;;;;11.60;7.45;;;17.70;93.50;;;;;;5060629;28;20033;-55
2022/04/13 11:09:21;;;;;;;9.75;5.93;;;17.70;93.40;;;;;;5065089;28;20028;-55
2022/04/13 11:11:48;;;;;;;9.77;6.13;;;17.70;92.60;;;;;;5062558;28;20159;-55
2022/04/13 11:14:20;;;;;;;9.82;6.20;;;17.60;92.40;;;;;;5054979;28;20037;-55
2022/04/13 11:16:46;;;;;;;14.00;6.88;;;17.60;92.40;;;;;;5065994;28;20032;-55
2022/04/13 11:19:12;;;;;;;10.80;7.45;;;17.70;92.30;;;;;;5066366;28;20040;-55
2022/04/13 11:21:52;;;;;;;12.88;6.80;;;17.70;92.20;;;;;;5057812;28;20105;-55
2022/04/13 11:24:39;;;;;;;19.55;8.25;;;17.70;92.40;;;;;;5055500;28;20567;-55
2022/04/13 11:27:06;;;;;;;30.05;8.75;;;17.70;92.40;;;;;;5062179;28;20037;-55
2022/04/13 11:29:37;;;;;;;9.60;5.65;;;17.80;92.40;;;;;;5057977;28;20039;-55
2022/04/13 11:32:04;;;;;;;10.07;5.47;;;17.80;91.70;;;;;;5059843;28;20032;-55
2022/04/13 11:34:35;;;;;;;9.15;6.10;;;17.70;91.70;;;;;;5063317;28;20079;-55
2022/04/13 11:37:05;;;;;;;14.53;6.87;;;17.70;91.50;;;;;;5048626;28;20045;-54
2022/04/13 11:39:44;;;;;;;15.88;7.97;;;17.60;91.70;;;;;;5070484;28;20396;-55
2022/04/13 11:42:26;;;;;;;12.10;6.57;;;17.60;92.10;;;;;;5065647;28;20040;-55
2022/04/13 11:45:12;;;;;;;12.23;6.10;;;17.60;92.10;;;;;;5067839;28;20071;-55
2022/04/13 11:47:51;;;;;;;9.70;6.00;;;17.70;92.00;;;;;;5070785;28;20508;-55
2022/04/13 11:50:19;;;;;;;13.77;7.70;;;17.70;91.90;;;;;;5048535;28;20032;-55
2022/04/13 11:53:14;;;;;;;11.02;6.78;;;17.70;92.20;;;;;;5072566;28;20139;-55
2022/04/13 11:55:39;;;;;;;13.40;7.75;;;17.80;92.60;;;;;;5070510;28;20047;-55
2022/04/13 11:58:07;;;;;;;10.63;6.75;;;17.80;92.50;;;;;;5069200;28;20044;-55
2022/04/13 12:01:11;;;;;;;11.38;7.40;;;17.80;92.30;;;;;;5071923;28;20098;-55
2022/04/13 12:03:39;;;;;;;13.32;7.75;;;17.80;92.40;;;;;;4971893;28;20099;-55
2022/04/13 12:06:10;;;;;;;16.55;7.93;;;17.70;92.00;;;;;;4961546;28;20053;-55
2022/04/13 12:08:47;;;;;;;14.80;8.43;;;17.70;91.90;;;;;;5013514;28;20508;-55
2022/04/13 12:11:16;;;;;;;15.23;9.23;;;17.60;92.10;;;;;;5072968;28;20044;-55
2022/04/13 12:13:49;;;;;;;16.92;9.85;;;17.60;92.50;;;;;;5070875;28;20036;-55
2022/04/13 12:16:19;;;;;;;16.95;10.57;;;17.60;93.20;;;;;;5062498;28;20024;-55
2022/04/13 12:18:45;;;;;;;18.45;11.20;;;17.50;93.60;;;;;;5053409;28;20041;-55
2022/04/13 12:21:13;;;;;;;16.63;10.45;;;17.40;93.80;;;;;;5056836;28;20039;-55
2022/04/13 12:23:39;;;;;;;19.80;10.40;;;17.30;93.90;;;;;;5070290;28;20044;-55
2022/04/13 12:26:06;;;;;;;20.65;10.73;;;17.20;94.20;;;;;;5048503;28;20390;-55
2022/04/13 12:28:33;;;;;;;16.25;9.25;;;17.10;94.20;;;;;;5068407;28;20036;-55
2022/04/13 12:31:04;;;;;;;18.17;9.48;;;17.00;94.40;;;;;;5072434;28;20037;-55
2022/04/13 12:33:31;;;;;;;19.30;9.82;;;17.00;94.40;;;;;;5067511;28;20069;-55
2022/04/13 12:36:01;;;;;;;17.38;9.43;;;16.90;94.60;;;;;;5091755;22;20509;-52